createdAt,value
2022-12-31T00:00:00.309Z,91.59
2022-12-31T00:01:02.519Z,92.01
2022-12-31T00:02:05.124Z,91.74
2022-12-31T00:03:08.418Z,92.16
2022-12-31T00:04:10.961Z,92.93
2022-12-31T00:05:12.502Z,92.88
2022-12-31T00:06:17.835Z,93.20
2022-12-31T00:07:21.994Z,93.28
2022-12-31T00:08:25.800Z,93.30
2022-12-31T00:09:28.266Z,92.79
2022-12-31T00:10:30.501Z,93.57
2022-12-31T00:11:35.800Z,93.23
2022-12-31T00:12:37.293Z,92.41
2022-12-31T00:13:40.298Z,92.25
2022-12-31T00:14:41.986Z,91.77
2022-12-31T00:15:45.409Z,91.92
2022-12-31T00:16:47.082Z,91.99
2022-12-31T00:17:49.537Z,91.49
2022-12-31T00:18:53.598Z,90.78
2022-12-31T00:19:59.228Z,90.59
2022-12-31T00:21:05.061Z,91.41
2022-12-31T00:22:07.486Z,91.62
2022-12-31T00:23:10.670Z,92.05
2022-12-31T00:24:13.468Z,92.34
2022-12-31T00:25:16.144Z,92.17
2022-12-31T00:26:21.017Z,92.74
2022-12-31T00:27:22.637Z,92.87
2022-12-31T00:28:25.080Z,92.39
2022-12-31T00:29:27.572Z,92.77
2022-12-31T00:30:29.186Z,92.37
2022-12-31T00:31:34.860Z,93.17
2022-12-31T00:32:36.353Z,93.58
2022-12-31T00:33:39.794Z,93.61
2022-12-31T00:34:41.282Z,93.41
2022-12-31T00:35:43.766Z,93.83
2022-12-31T00:36:46.075Z,93.68
2022-12-31T00:37:48.627Z,94.17
2022-12-31T00:38:52.349Z,93.79
2022-12-31T00:39:56.130Z,94.64
2022-12-31T00:40:57.615Z,94.18
2022-12-31T00:42:00.098Z,93.72
2022-12-31T00:43:01.607Z,94.02
2022-12-31T00:44:04.547Z,93.90
2022-12-31T00:45:07.174Z,93.46
2022-12-31T00:46:10.186Z,92.69
2022-12-31T00:47:11.745Z,93.15
2022-12-31T00:48:14.207Z,93.04
2022-12-31T00:49:15.986Z,93.01
2022-12-31T00:50:18.444Z,92.48
2022-12-31T00:51:22.833Z,93.58
2022-12-31T00:52:25.274Z,93.85
2022-12-31T00:53:28.853Z,94.32
2022-12-31T00:54:31.303Z,94.31
2022-12-31T00:55:34.091Z,94.42
2022-12-31T00:56:36.557Z,95.18
2022-12-31T00:57:38.050Z,95.61
2022-12-31T00:58:41.054Z,95.20
2022-12-31T00:59:42.520Z,94.64
2022-12-31T01:00:45.272Z,94.85
2022-12-31T01:01:47.782Z,95.23
2022-12-31T01:02:49.767Z,94.97
2022-12-31T01:03:54.400Z,94.78
2022-12-31T01:04:55.890Z,94.54
2022-12-31T01:06:00.155Z,94.23
2022-12-31T01:07:01.637Z,93.89
2022-12-31T01:08:04.689Z,93.25
2022-12-31T01:09:07.130Z,92.80
2022-12-31T01:10:10.699Z,93.76
2022-12-31T01:11:19.356Z,94.48
2022-12-31T01:12:21.895Z,93.66
2022-12-31T01:13:23.574Z,93.54
2022-12-31T01:14:26.066Z,93.99
2022-12-31T01:15:27.561Z,93.13
2022-12-31T01:16:32.922Z,92.40
2022-12-31T01:17:34.505Z,92.53
2022-12-31T01:18:36.960Z,93.32
2022-12-31T01:19:38.464Z,94.31
2022-12-31T01:20:43.680Z,94.40
2022-12-31T01:21:48.405Z,94.41
2022-12-31T01:22:51.042Z,94.56
2022-12-31T01:23:52.677Z,94.37
2022-12-31T01:24:55.174Z,94.47
2022-12-31T01:25:59.235Z,95.14
2022-12-31T01:27:03.027Z,95.40
2022-12-31T01:28:05.545Z,95.85
2022-12-31T01:29:12.374Z,96.25
2022-12-31T01:30:13.865Z,96.88
2022-12-31T01:31:18.106Z,96.26
2022-12-31T01:32:19.692Z,96.38
2022-12-31T01:33:22.413Z,96.46
2022-12-31T01:34:23.971Z,96.78
2022-12-31T01:35:26.438Z,96.58
2022-12-31T01:36:29.689Z,96.11
2022-12-31T01:37:32.114Z,95.57
2022-12-31T01:38:34.423Z,96.29
2022-12-31T01:39:36.881Z,96.21
2022-12-31T01:40:40.169Z,95.69
2022-12-31T01:41:45.503Z,95.91
2022-12-31T01:42:55.412Z,96.79
2022-12-31T01:43:59.782Z,97.28
2022-12-31T01:45:01.287Z,96.64
2022-12-31T01:46:03.852Z,96.28
2022-12-31T01:47:12.431Z,95.67
2022-12-31T01:48:18.074Z,96.28
2022-12-31T01:49:23.535Z,96.47
2022-12-31T01:50:29.817Z,96.39
2022-12-31T01:51:34.993Z,96.58
2022-12-31T01:52:41.141Z,97.30
2022-12-31T01:53:43.339Z,97.63
2022-12-31T01:54:49.709Z,97.76
2022-12-31T01:55:56.702Z,98.13
2022-12-31T01:56:58.764Z,96.97
2022-12-31T01:58:07.485Z,97.35
2022-12-31T01:59:11.068Z,97.00
2022-12-31T02:00:14.317Z,96.87
2022-12-31T02:01:21.697Z,97.17
2022-12-31T02:02:24.379Z,96.73
2022-12-31T02:03:28.542Z,96.50
2022-12-31T02:04:31.509Z,96.03
2022-12-31T02:05:39.376Z,95.25
2022-12-31T02:06:45.469Z,95.19
2022-12-31T02:07:48.700Z,95.19
2022-12-31T02:08:51.591Z,95.30
2022-12-31T02:09:54.099Z,95.24
2022-12-31T02:10:56.583Z,95.36
2022-12-31T02:11:58.191Z,95.18
2022-12-31T02:13:01.103Z,95.95
2022-12-31T02:14:06.896Z,96.43
2022-12-31T02:15:10.288Z,95.89
2022-12-31T02:16:21.296Z,96.45
2022-12-31T02:17:31.700Z,95.73
2022-12-31T02:18:39.279Z,96.93
2022-12-31T02:20:04.871Z,97.40
2022-12-31T02:21:41.328Z,96.40
2022-12-31T02:23:02.608Z,96.49
2022-12-31T02:24:27.385Z,95.42
2022-12-31T02:25:51.608Z,95.83
2022-12-31T02:26:59.928Z,95.66
2022-12-31T02:28:16.662Z,95.39
2022-12-31T02:29:56.806Z,95.31
2022-12-31T02:31:06.026Z,95.29
2022-12-31T02:32:12.823Z,95.52
2022-12-31T02:33:22.044Z,94.62
2022-12-31T02:34:31.275Z,94.90
2022-12-31T02:35:44.223Z,94.78
2022-12-31T02:36:50.161Z,94.71
2022-12-31T02:37:58.690Z,94.27
2022-12-31T02:39:03.817Z,93.12
2022-12-31T02:40:13.223Z,93.59
2022-12-31T02:41:31.808Z,93.54
2022-12-31T02:42:34.278Z,93.08
2022-12-31T02:43:35.875Z,93.04
2022-12-31T02:44:40.797Z,92.39
2022-12-31T02:45:47.338Z,92.59
2022-12-31T02:47:03.310Z,94.03
2022-12-31T02:48:20.503Z,94.45
2022-12-31T02:49:28.095Z,93.97
2022-12-31T02:50:40.020Z,94.02
2022-12-31T02:51:50.944Z,94.58
2022-12-31T02:53:03.807Z,94.78
2022-12-31T02:54:18.615Z,95.70
2022-12-31T02:55:29.659Z,95.39
2022-12-31T02:56:39.103Z,95.37
2022-12-31T02:57:47.516Z,96.15
2022-12-31T02:59:18.434Z,95.36
2022-12-31T03:00:39.219Z,95.40
2022-12-31T03:02:03.836Z,95.20
2022-12-31T03:03:09.858Z,95.23
2022-12-31T03:04:32.163Z,95.28
2022-12-31T03:05:38.453Z,95.12
2022-12-31T03:06:42.063Z,95.03
2022-12-31T03:07:45.691Z,95.13
2022-12-31T03:09:05.797Z,94.74
2022-12-31T03:10:09.766Z,94.88
2022-12-31T03:11:31.401Z,94.54
2022-12-31T03:12:46.946Z,94.76
2022-12-31T03:13:48.595Z,94.85
2022-12-31T03:14:51.091Z,94.62
2022-12-31T03:15:53.557Z,94.49
2022-12-31T03:16:55.214Z,94.19
2022-12-31T03:18:00.753Z,94.79
2022-12-31T03:19:22.074Z,94.73
2022-12-31T03:20:46.168Z,94.41
2022-12-31T03:22:14.278Z,93.41
2022-12-31T03:23:19.702Z,94.56
2022-12-31T03:24:41.691Z,94.45
2022-12-31T03:25:43.848Z,93.00
2022-12-31T03:26:45.354Z,94.17
2022-12-31T03:27:48.367Z,94.15
2022-12-31T03:28:50.849Z,93.46
2022-12-31T03:29:52.369Z,94.76
2022-12-31T03:30:58.304Z,94.43
2022-12-31T03:31:59.990Z,94.53
2022-12-31T03:33:03.244Z,94.80
2022-12-31T03:34:06.090Z,95.45
2022-12-31T03:35:10.126Z,95.52
2022-12-31T03:36:15.461Z,94.94
2022-12-31T03:37:16.926Z,94.90
2022-12-31T03:38:20.165Z,93.97
2022-12-31T03:39:21.654Z,93.39
2022-12-31T03:40:28.365Z,93.14
2022-12-31T03:41:29.858Z,92.73
2022-12-31T03:42:32.334Z,92.16
2022-12-31T03:43:33.872Z,92.18
2022-12-31T03:44:36.311Z,92.62
2022-12-31T03:45:39.450Z,93.03
2022-12-31T03:46:40.998Z,92.68
2022-12-31T03:47:44.245Z,92.61
2022-12-31T03:48:46.740Z,93.85
2022-12-31T03:49:49.580Z,93.97
2022-12-31T03:50:52.697Z,94.30
2022-12-31T03:51:54.165Z,94.75
2022-12-31T03:52:56.768Z,94.92
2022-12-31T03:53:58.476Z,95.00
2022-12-31T03:55:02.108Z,95.23
2022-12-31T03:56:03.974Z,95.11
2022-12-31T03:57:06.424Z,95.05
2022-12-31T03:58:09.119Z,95.37
2022-12-31T03:59:10.921Z,95.35
2022-12-31T04:00:17.005Z,94.92
2022-12-31T04:01:19.189Z,95.34
2022-12-31T04:02:28.083Z,95.72
2022-12-31T04:03:31.166Z,95.52
2022-12-31T04:04:32.752Z,94.83
2022-12-31T04:05:36.611Z,94.88
2022-12-31T04:06:38.116Z,95.87
2022-12-31T04:07:40.981Z,95.24
2022-12-31T04:08:42.457Z,95.42
2022-12-31T04:09:44.893Z,95.61
2022-12-31T04:10:46.381Z,94.92
2022-12-31T04:11:48.818Z,94.03
2022-12-31T04:12:51.331Z,93.50
2022-12-31T04:13:52.826Z,92.85
2022-12-31T04:14:57.660Z,93.27
2022-12-31T04:15:59.289Z,94.35
2022-12-31T04:17:01.851Z,94.44
2022-12-31T04:18:04.542Z,95.63
2022-12-31T04:19:06.139Z,95.57
2022-12-31T04:20:10.147Z,95.17
2022-12-31T04:21:12.960Z,95.18
2022-12-31T04:22:15.876Z,94.19
2022-12-31T04:23:17.629Z,94.43
2022-12-31T04:24:20.158Z,96.53
2022-12-31T04:25:22.641Z,95.91
2022-12-31T04:26:24.212Z,96.12
2022-12-31T04:27:26.710Z,97.00
2022-12-31T04:28:28.224Z,97.01
2022-12-31T04:29:30.705Z,96.44
2022-12-31T04:30:33.138Z,96.19
2022-12-31T04:31:35.234Z,95.99
2022-12-31T04:32:37.693Z,95.90
2022-12-31T04:33:39.308Z,95.55
2022-12-31T04:34:41.866Z,95.88
2022-12-31T04:35:44.229Z,95.26
2022-12-31T04:36:48.093Z,96.44
2022-12-31T04:37:50.531Z,96.22
2022-12-31T04:38:52.981Z,96.43
2022-12-31T04:39:55.429Z,96.54
2022-12-31T04:41:17.858Z,97.98
2022-12-31T04:42:20.269Z,98.35
2022-12-31T04:43:21.743Z,97.95
2022-12-31T04:44:24.542Z,97.59
2022-12-31T04:45:26.044Z,96.79
2022-12-31T04:46:30.351Z,96.03
2022-12-31T04:47:31.884Z,96.85
2022-12-31T04:48:34.362Z,97.17
2022-12-31T04:49:36.846Z,96.56
2022-12-31T04:50:38.328Z,96.05
2022-12-31T04:51:41.222Z,96.34
2022-12-31T04:52:44.037Z,96.81
2022-12-31T04:53:46.621Z,97.11
2022-12-31T04:54:49.131Z,97.74
2022-12-31T04:55:50.703Z,96.97
2022-12-31T04:56:53.156Z,97.41
2022-12-31T04:57:54.661Z,96.97
2022-12-31T04:58:57.634Z,96.47
2022-12-31T04:59:59.138Z,96.70
2022-12-31T05:01:01.861Z,96.94
2022-12-31T05:02:04.593Z,97.26
2022-12-31T05:03:06.324Z,97.06
2022-12-31T05:04:08.838Z,97.11
2022-12-31T05:05:10.531Z,96.63
2022-12-31T05:06:14.957Z,96.33
2022-12-31T05:07:17.390Z,95.77
2022-12-31T05:08:20.524Z,96.06
2022-12-31T05:09:24.103Z,95.42
2022-12-31T05:10:25.665Z,94.80
2022-12-31T05:11:28.117Z,95.48
2022-12-31T05:12:31.924Z,94.89
2022-12-31T05:13:34.637Z,94.39
2022-12-31T05:14:37.076Z,94.56
2022-12-31T05:15:39.184Z,94.48
2022-12-31T05:16:41.727Z,94.43
2022-12-31T05:17:43.273Z,93.76
2022-12-31T05:18:45.739Z,94.24
2022-12-31T05:19:47.271Z,93.67
2022-12-31T05:20:49.797Z,93.81
2022-12-31T05:22:06.227Z,94.93
2022-12-31T05:23:09.022Z,94.63
2022-12-31T05:24:11.914Z,94.57
2022-12-31T05:25:14.404Z,94.69
2022-12-31T05:26:16.070Z,94.30
2022-12-31T05:27:18.511Z,94.82
2022-12-31T05:28:21.260Z,94.65
2022-12-31T05:29:22.742Z,93.69
2022-12-31T05:30:26.158Z,94.44
2022-12-31T05:31:28.659Z,94.79
2022-12-31T05:32:30.238Z,94.86
2022-12-31T05:33:32.737Z,94.18
2022-12-31T05:34:34.345Z,94.11
2022-12-31T05:35:36.911Z,94.04
2022-12-31T05:36:38.434Z,93.89
2022-12-31T05:37:42.139Z,93.25
2022-12-31T05:38:44.560Z,92.81
2022-12-31T05:39:47.399Z,92.33
2022-12-31T05:40:49.964Z,92.29
2022-12-31T05:41:51.528Z,91.94
2022-12-31T05:42:53.983Z,91.64
2022-12-31T05:43:57.932Z,91.57
2022-12-31T05:45:00.348Z,91.85
2022-12-31T05:46:02.360Z,92.46
2022-12-31T05:47:05.085Z,92.25
2022-12-31T05:48:07.695Z,92.25
2022-12-31T05:49:09.307Z,91.53
2022-12-31T05:50:15.354Z,91.22
2022-12-31T05:51:17.798Z,91.35
2022-12-31T05:52:19.659Z,91.25
2022-12-31T05:53:22.131Z,90.75
2022-12-31T05:54:23.622Z,90.34
2022-12-31T05:55:27.879Z,90.54
2022-12-31T05:56:29.436Z,90.18
2022-12-31T05:57:32.060Z,90.44
2022-12-31T05:58:34.537Z,90.25
2022-12-31T05:59:36.352Z,90.80
2022-12-31T06:00:38.838Z,91.63
2022-12-31T06:01:40.413Z,90.98
2022-12-31T06:02:42.928Z,90.72
2022-12-31T06:03:44.493Z,91.16
2022-12-31T06:04:47.160Z,91.44
2022-12-31T06:05:49.585Z,90.54
2022-12-31T06:06:51.266Z,90.56
2022-12-31T06:07:53.822Z,89.68
2022-12-31T06:08:57.854Z,89.42
2022-12-31T06:10:00.386Z,89.20
2022-12-31T06:11:03.547Z,89.73
2022-12-31T06:12:06.873Z,89.54
2022-12-31T06:13:10.031Z,89.25
2022-12-31T06:14:12.096Z,89.38
2022-12-31T06:15:14.506Z,88.49
2022-12-31T06:16:16.189Z,88.87
2022-12-31T06:17:20.227Z,88.57
2022-12-31T06:18:21.742Z,88.39
2022-12-31T06:19:24.237Z,88.47
2022-12-31T06:20:26.737Z,87.91
2022-12-31T06:21:28.942Z,87.69
2022-12-31T06:22:31.365Z,87.84
2022-12-31T06:23:32.859Z,87.72
2022-12-31T06:24:35.334Z,87.87
2022-12-31T06:25:37.035Z,87.76
2022-12-31T06:26:41.880Z,88.07
2022-12-31T06:27:43.505Z,87.85
2022-12-31T06:28:45.929Z,87.56
2022-12-31T06:29:48.023Z,87.30
2022-12-31T06:30:50.515Z,87.39
2022-12-31T06:31:52.016Z,86.81
2022-12-31T06:32:55.814Z,87.58
2022-12-31T06:33:57.301Z,87.76
2022-12-31T06:34:59.791Z,87.42
2022-12-31T06:36:04.744Z,87.44
2022-12-31T06:37:07.183Z,87.79
2022-12-31T06:38:08.682Z,87.97
2022-12-31T06:39:11.152Z,87.99
2022-12-31T06:40:12.973Z,87.40
2022-12-31T06:41:18.320Z,87.17
2022-12-31T06:42:21.295Z,87.04
2022-12-31T06:43:23.974Z,87.10
2022-12-31T06:44:25.540Z,87.44
2022-12-31T06:45:28.238Z,87.61
2022-12-31T06:46:29.807Z,87.07
2022-12-31T06:47:32.307Z,87.69
2022-12-31T06:48:34.487Z,87.86
2022-12-31T06:49:36.891Z,87.82
2022-12-31T06:50:38.635Z,87.67
2022-12-31T06:51:41.120Z,87.50
2022-12-31T06:52:43.933Z,87.39
2022-12-31T06:53:46.617Z,86.75
2022-12-31T06:54:50.914Z,87.11
2022-12-31T06:55:52.900Z,86.47
2022-12-31T06:56:55.896Z,86.17
2022-12-31T06:57:59.786Z,86.16
2022-12-31T06:59:03.030Z,85.92
2022-12-31T07:00:06.823Z,86.02
2022-12-31T07:01:29.824Z,86.32
2022-12-31T07:02:53.446Z,86.32
2022-12-31T07:04:03.559Z,86.24
2022-12-31T07:05:15.189Z,86.19
2022-12-31T07:06:26.667Z,86.32
2022-12-31T07:07:33.368Z,85.98
2022-12-31T07:08:46.275Z,86.26
2022-12-31T07:09:54.696Z,85.78
2022-12-31T07:11:04.378Z,85.88
2022-12-31T07:12:18.098Z,85.71
2022-12-31T07:13:46.760Z,85.25
2022-12-31T07:14:54.899Z,85.66
2022-12-31T07:16:10.119Z,86.08
2022-12-31T07:17:25.012Z,85.87
2022-12-31T07:18:37.908Z,85.99
2022-12-31T07:19:57.159Z,86.50
2022-12-31T07:21:00.605Z,86.59
2022-12-31T07:22:03.098Z,86.65
2022-12-31T07:23:06.159Z,85.94
2022-12-31T07:24:09.635Z,85.31
2022-12-31T07:25:14.941Z,86.10
2022-12-31T07:26:24.899Z,85.92
2022-12-31T07:27:48.538Z,85.97
2022-12-31T07:29:00.764Z,85.48
2022-12-31T07:30:07.994Z,85.37
2022-12-31T07:31:16.203Z,85.02
2022-12-31T07:32:34.154Z,85.13
2022-12-31T07:33:51.442Z,84.55
2022-12-31T07:35:02.807Z,84.43
2022-12-31T07:36:17.238Z,85.25
2022-12-31T07:37:28.124Z,84.85
2022-12-31T07:38:37.155Z,85.10
2022-12-31T07:39:45.777Z,85.30
2022-12-31T07:40:58.204Z,85.41
2022-12-31T07:42:09.254Z,84.91
2022-12-31T07:43:19.110Z,85.47
2022-12-31T07:44:35.553Z,84.61
2022-12-31T07:45:45.571Z,84.66
2022-12-31T07:46:56.563Z,84.98
2022-12-31T07:48:02.524Z,85.04
2022-12-31T07:49:06.916Z,85.74
2022-12-31T07:50:14.572Z,85.87
2022-12-31T07:51:17.725Z,85.59
2022-12-31T07:52:21.638Z,85.46
2022-12-31T07:53:25.238Z,85.31
2022-12-31T07:54:27.679Z,84.72
2022-12-31T07:55:29.180Z,83.31
2022-12-31T07:56:31.868Z,84.13
2022-12-31T07:57:42.043Z,84.14
2022-12-31T07:58:55.892Z,84.24
2022-12-31T08:00:07.086Z,84.42
2022-12-31T08:01:11.602Z,84.81
2022-12-31T08:02:25.419Z,84.57
2022-12-31T08:03:48.746Z,84.61
2022-12-31T08:04:59.838Z,84.14
2022-12-31T08:06:12.084Z,84.27
2022-12-31T08:07:22.582Z,83.54
2022-12-31T08:08:36.546Z,84.72
2022-12-31T08:09:47.263Z,84.11
2022-12-31T08:11:03.120Z,84.70
2022-12-31T08:12:06.078Z,84.02
2022-12-31T08:13:10.813Z,84.03
2022-12-31T08:14:15.902Z,84.03
2022-12-31T08:15:20.578Z,84.05
2022-12-31T08:16:24.998Z,84.17
2022-12-31T08:17:27.106Z,84.47
2022-12-31T08:18:29.997Z,83.71
2022-12-31T08:19:32.864Z,83.90
2022-12-31T08:20:40.930Z,83.84
2022-12-31T08:21:48.911Z,83.98
2022-12-31T08:23:12.357Z,83.67
2022-12-31T08:24:22.477Z,83.73
2022-12-31T08:25:32.637Z,84.59
2022-12-31T08:26:41.261Z,84.27
2022-12-31T08:27:50.666Z,83.08
2022-12-31T08:29:16.394Z,83.04
2022-12-31T08:30:22.127Z,84.00
2022-12-31T08:31:30.795Z,84.71
2022-12-31T08:32:39.238Z,84.95
2022-12-31T08:33:48.646Z,83.99
2022-12-31T08:34:59.733Z,83.37
2022-12-31T08:36:13.218Z,83.44
2022-12-31T08:37:21.812Z,82.72
2022-12-31T08:38:30.366Z,83.69
2022-12-31T08:39:46.855Z,83.09
2022-12-31T08:41:00.248Z,82.76
2022-12-31T08:42:06.707Z,83.51
2022-12-31T08:43:33.980Z,82.87
2022-12-31T08:44:45.859Z,83.31
2022-12-31T08:45:51.867Z,82.43
2022-12-31T08:46:59.848Z,82.82
2022-12-31T08:48:07.742Z,83.35
2022-12-31T08:49:10.219Z,83.33
2022-12-31T08:50:16.282Z,82.81
2022-12-31T08:51:21.797Z,83.16
2022-12-31T08:52:25.352Z,83.51
2022-12-31T08:53:28.353Z,83.47
2022-12-31T08:54:30.364Z,83.35
2022-12-31T08:55:33.443Z,84.34
2022-12-31T08:56:40.196Z,84.54
2022-12-31T08:57:50.458Z,84.47
2022-12-31T08:59:02.654Z,83.68
2022-12-31T09:00:10.462Z,83.85
2022-12-31T09:01:19.073Z,84.28
2022-12-31T09:02:36.524Z,84.19
2022-12-31T09:04:16.326Z,83.96
2022-12-31T09:05:25.166Z,84.11
2022-12-31T09:06:30.425Z,83.71
2022-12-31T09:07:37.301Z,83.40
2022-12-31T09:08:52.165Z,83.21
2022-12-31T09:10:03.921Z,82.14
2022-12-31T09:11:19.183Z,82.24
2022-12-31T09:12:33.890Z,83.32
2022-12-31T09:13:50.434Z,83.14
2022-12-31T09:15:01.774Z,82.86
2022-12-31T09:16:12.853Z,82.60
2022-12-31T09:17:35.711Z,82.69
2022-12-31T09:18:41.876Z,82.58
2022-12-31T09:19:43.408Z,82.72
2022-12-31T09:20:46.377Z,81.94
2022-12-31T09:21:49.454Z,81.72
2022-12-31T09:22:53.063Z,81.82
2022-12-31T09:23:55.186Z,81.96
2022-12-31T09:24:57.985Z,82.60
2022-12-31T09:26:08.132Z,82.40
2022-12-31T09:27:16.025Z,82.62
2022-12-31T09:28:29.478Z,82.67
2022-12-31T09:29:42.868Z,82.59
2022-12-31T09:30:52.014Z,82.91
2022-12-31T09:31:59.739Z,82.59
2022-12-31T09:33:09.671Z,82.40
2022-12-31T09:34:20.639Z,82.27
2022-12-31T09:35:33.373Z,82.14
2022-12-31T09:36:39.820Z,81.63
2022-12-31T09:37:49.201Z,80.91
2022-12-31T09:38:57.384Z,80.66
2022-12-31T09:40:10.457Z,81.22
2022-12-31T09:41:15.336Z,81.44
2022-12-31T09:42:46.956Z,81.31
2022-12-31T09:44:10.517Z,80.20
2022-12-31T09:45:44.464Z,80.76
2022-12-31T09:47:19.731Z,81.16
2022-12-31T09:49:06.411Z,81.50
2022-12-31T09:50:31.844Z,80.63
2022-12-31T09:51:42.396Z,80.33
2022-12-31T09:53:02.549Z,80.60
2022-12-31T09:54:20.430Z,80.59
2022-12-31T09:55:33.335Z,81.20
2022-12-31T09:56:38.045Z,81.29
2022-12-31T09:57:49.524Z,81.40
2022-12-31T09:59:01.104Z,81.17
2022-12-31T10:00:11.358Z,81.56
2022-12-31T10:01:28.853Z,80.98
2022-12-31T10:02:49.079Z,81.08
2022-12-31T10:04:26.405Z,80.56
2022-12-31T10:05:43.451Z,80.14
2022-12-31T10:06:57.358Z,80.22
2022-12-31T10:08:10.314Z,79.85
2022-12-31T10:09:45.356Z,78.45
2022-12-31T10:10:53.587Z,78.58
2022-12-31T10:12:06.258Z,77.64
2022-12-31T10:13:30.774Z,78.92
2022-12-31T10:14:49.602Z,79.80
2022-12-31T10:16:32.678Z,79.49
2022-12-31T10:17:49.838Z,79.50
2022-12-31T10:19:18.841Z,79.49
2022-12-31T10:20:35.306Z,79.84
2022-12-31T10:21:54.683Z,79.82
2022-12-31T10:23:16.483Z,79.50
2022-12-31T10:24:35.147Z,79.59
2022-12-31T10:25:53.580Z,80.28
2022-12-31T10:27:07.049Z,79.57
2022-12-31T10:28:19.807Z,78.76
2022-12-31T10:29:31.948Z,79.07
2022-12-31T10:30:36.594Z,78.64
2022-12-31T10:31:43.726Z,78.33
2022-12-31T10:32:59.619Z,78.33
2022-12-31T10:34:13.840Z,78.00
2022-12-31T10:35:32.077Z,78.18
2022-12-31T10:36:55.228Z,77.95
2022-12-31T10:38:07.589Z,77.92
2022-12-31T10:39:24.266Z,78.57
2022-12-31T10:40:41.046Z,79.11
2022-12-31T10:42:05.952Z,79.31
2022-12-31T10:43:32.408Z,78.75
2022-12-31T10:44:59.901Z,78.77
2022-12-31T10:46:28.176Z,78.47
2022-12-31T10:48:25.388Z,77.97
2022-12-31T10:49:49.300Z,78.51
2022-12-31T10:51:23.509Z,78.08
2022-12-31T10:53:08.247Z,78.37
2022-12-31T10:54:49.878Z,78.69
2022-12-31T10:56:26.370Z,78.81
2022-12-31T10:58:03.999Z,78.53
2022-12-31T10:59:42.660Z,78.55
2022-12-31T11:00:54.295Z,77.83
2022-12-31T11:02:14.242Z,77.73
2022-12-31T11:04:02.346Z,77.05
2022-12-31T11:05:46.808Z,78.61
2022-12-31T11:07:27.981Z,78.67
2022-12-31T11:08:54.813Z,78.91
2022-12-31T11:10:50.273Z,77.75
2022-12-31T11:11:59.591Z,78.09
2022-12-31T11:13:31.775Z,78.10
2022-12-31T11:14:48.297Z,78.82
2022-12-31T11:16:07.588Z,78.26
2022-12-31T11:17:27.134Z,78.20
2022-12-31T11:18:37.681Z,77.90
2022-12-31T11:19:49.763Z,78.11
2022-12-31T11:21:17.201Z,78.51
2022-12-31T11:22:42.422Z,78.03
2022-12-31T11:23:56.225Z,78.73
2022-12-31T11:25:17.077Z,78.63
2022-12-31T11:26:33.614Z,77.82
2022-12-31T11:27:49.484Z,78.26
2022-12-31T11:29:06.078Z,78.05
2022-12-31T11:30:22.186Z,77.07
2022-12-31T11:31:46.734Z,76.85
2022-12-31T11:33:04.272Z,76.97
2022-12-31T11:34:24.121Z,77.47
2022-12-31T11:35:36.024Z,77.59
2022-12-31T11:36:46.161Z,77.62
2022-12-31T11:37:50.717Z,77.32
2022-12-31T11:39:00.939Z,78.30
2022-12-31T11:40:18.769Z,77.74
2022-12-31T11:41:29.073Z,77.73
2022-12-31T11:42:41.542Z,77.67
2022-12-31T11:43:54.264Z,77.76
2022-12-31T11:45:02.908Z,76.97
2022-12-31T11:46:41.267Z,76.53
2022-12-31T11:49:41.199Z,77.46
2022-12-31T11:50:53.693Z,77.92
2022-12-31T11:52:08.135Z,77.76
2022-12-31T11:53:35.589Z,77.97
2022-12-31T11:54:58.992Z,77.94
2022-12-31T11:56:13.797Z,77.68
2022-12-31T11:57:26.009Z,77.93
2022-12-31T11:58:30.040Z,77.34
2022-12-31T11:59:31.543Z,77.08
2022-12-31T12:00:35.195Z,77.51
2022-12-31T12:01:52.728Z,78.21
2022-12-31T12:03:00.450Z,78.22
2022-12-31T12:04:03.194Z,77.76
2022-12-31T12:05:11.121Z,78.40
2022-12-31T12:06:16.450Z,78.96
2022-12-31T12:07:18.749Z,79.17
2022-12-31T12:08:22.534Z,79.61
2022-12-31T12:09:27.944Z,78.89
2022-12-31T12:10:36.636Z,78.84
2022-12-31T12:11:40.852Z,77.86
2022-12-31T12:12:44.284Z,78.25
2022-12-31T12:13:47.060Z,77.60
2022-12-31T12:14:53.441Z,77.46
2022-12-31T12:15:59.014Z,77.91
2022-12-31T12:17:05.144Z,77.71
2022-12-31T12:18:10.775Z,77.54
2022-12-31T12:19:19.152Z,77.37
2022-12-31T12:20:27.784Z,77.44
2022-12-31T12:21:30.962Z,76.32
2022-12-31T12:22:32.727Z,77.09
2022-12-31T12:23:36.567Z,76.46
2022-12-31T12:24:39.078Z,76.05
2022-12-31T12:25:44.383Z,76.23
2022-12-31T12:26:46.848Z,75.92
2022-12-31T12:27:49.748Z,75.05
2022-12-31T12:28:52.270Z,74.65
2022-12-31T12:29:53.740Z,74.18
2022-12-31T12:30:59.906Z,75.40
2022-12-31T12:32:04.884Z,75.55
2022-12-31T12:33:17.265Z,75.21
2022-12-31T12:34:24.739Z,74.19
2022-12-31T12:35:30.017Z,74.44
2022-12-31T12:36:33.037Z,73.34
2022-12-31T12:37:35.418Z,72.58
2022-12-31T12:38:39.406Z,72.43
2022-12-31T12:39:41.956Z,72.38
2022-12-31T12:40:53.888Z,72.03
2022-12-31T12:42:05.319Z,72.62
2022-12-31T12:43:22.061Z,72.57
2022-12-31T12:44:24.477Z,71.74
2022-12-31T12:45:30.077Z,73.77
2022-12-31T12:46:34.775Z,74.65
2022-12-31T12:47:37.598Z,74.50
2022-12-31T12:48:42.742Z,75.19
2022-12-31T12:49:47.454Z,74.92
2022-12-31T12:50:49.858Z,74.82
2022-12-31T12:52:16.945Z,74.89
2022-12-31T12:53:31.548Z,77.04
2022-12-31T12:54:48.277Z,76.23
2022-12-31T12:55:58.764Z,76.35
2022-12-31T12:57:08.948Z,76.12
2022-12-31T12:58:22.478Z,76.28
2022-12-31T12:59:53.646Z,76.45
2022-12-31T13:01:02.032Z,75.39
2022-12-31T13:02:23.327Z,75.23
2022-12-31T13:04:07.295Z,75.67
2022-12-31T13:05:21.632Z,75.18
2022-12-31T13:06:39.145Z,75.66
2022-12-31T13:07:52.563Z,76.86
2022-12-31T13:09:09.313Z,76.62
2022-12-31T13:10:29.409Z,76.80
2022-12-31T13:11:43.253Z,77.29
2022-12-31T13:14:24.765Z,77.64
2022-12-31T13:15:33.892Z,77.62
2022-12-31T13:16:45.142Z,77.41
2022-12-31T13:18:01.888Z,77.28
2022-12-31T13:19:12.358Z,77.68
2022-12-31T13:20:20.954Z,77.23
2022-12-31T13:21:33.470Z,77.57
2022-12-31T13:22:41.313Z,77.38
2022-12-31T13:23:52.646Z,77.28
2022-12-31T13:25:01.782Z,77.87
2022-12-31T13:26:12.175Z,77.55
2022-12-31T13:27:21.879Z,77.84
2022-12-31T13:28:26.021Z,78.33
2022-12-31T13:29:31.765Z,78.28
2022-12-31T13:30:37.391Z,77.94
2022-12-31T13:31:41.279Z,78.25
2022-12-31T13:32:46.985Z,77.13
2022-12-31T13:33:54.664Z,77.29
2022-12-31T13:35:01.589Z,77.44
2022-12-31T13:36:07.639Z,76.85
2022-12-31T13:37:23.462Z,76.45
2022-12-31T13:38:30.779Z,76.24
2022-12-31T13:39:38.996Z,76.49
2022-12-31T13:40:49.335Z,77.10
2022-12-31T13:41:57.895Z,76.56
2022-12-31T13:43:06.042Z,76.26
2022-12-31T13:44:15.747Z,76.92
2022-12-31T13:45:25.540Z,77.03
2022-12-31T13:46:39.762Z,76.65
2022-12-31T13:47:46.189Z,76.49
2022-12-31T13:48:53.211Z,76.21
2022-12-31T13:49:59.082Z,75.75
2022-12-31T13:51:07.390Z,75.79
2022-12-31T13:52:22.754Z,75.47
2022-12-31T13:53:33.203Z,75.36
2022-12-31T13:54:43.595Z,75.11
2022-12-31T13:55:56.798Z,74.88
2022-12-31T13:57:05.367Z,74.56
2022-12-31T13:58:19.288Z,74.69
2022-12-31T13:59:26.533Z,76.36
2022-12-31T14:00:35.315Z,76.60
2022-12-31T14:01:44.343Z,76.93
2022-12-31T14:02:54.039Z,76.36
2022-12-31T14:04:05.795Z,75.45
2022-12-31T14:05:17.437Z,75.88
2022-12-31T14:06:29.797Z,76.11
2022-12-31T14:07:45.164Z,75.75
2022-12-31T14:08:48.448Z,75.14
2022-12-31T14:09:53.192Z,74.39
2022-12-31T14:11:06.388Z,74.78
2022-12-31T14:12:22.889Z,74.65
2022-12-31T14:13:56.221Z,74.43
2022-12-31T14:15:06.081Z,74.18
2022-12-31T14:16:17.371Z,75.46
2022-12-31T14:17:27.762Z,75.76
2022-12-31T14:18:37.045Z,75.83
2022-12-31T14:19:51.526Z,74.31
2022-12-31T14:20:58.357Z,75.26
2022-12-31T14:22:05.345Z,75.23
2022-12-31T14:23:17.334Z,74.36
2022-12-31T14:24:34.088Z,74.47
2022-12-31T14:25:43.302Z,74.29
2022-12-31T14:26:48.892Z,75.10
2022-12-31T14:27:56.407Z,74.87
2022-12-31T14:29:08.696Z,75.06
2022-12-31T14:30:17.512Z,75.34
2022-12-31T14:31:29.319Z,74.56
2022-12-31T14:33:02.849Z,75.60
2022-12-31T14:34:11.994Z,75.53
2022-12-31T14:35:39.945Z,75.81
2022-12-31T14:36:52.999Z,76.24
2022-12-31T14:38:00.606Z,77.16
2022-12-31T14:39:22.477Z,77.61
2022-12-31T14:40:44.313Z,77.95
2022-12-31T14:42:00.486Z,77.61
2022-12-31T14:43:17.548Z,76.98
2022-12-31T14:44:33.977Z,75.88
2022-12-31T14:45:51.095Z,75.64
2022-12-31T14:47:09.597Z,75.33